Lake Nepessing, Michigan
Current Conditions -  °F | °C
As of 3:13 AM on Thursday 29 Jan 2015 (Local Time) from KD95 Reporting Station
Overcast Overcast  
Wind Chill: 17°   Ceiling: 7000
Heat Index: 26°   Visibility: 10mi
Dew Point: 15°   Wind: 9mph
Humidity: 63%   Direction: 150°SSE
Pressure: 29.97"   Gusts: 17mph
Location:  43.0516°N, 83.3333°W
Report Text: KD95 290813Z AUTO 15008G15KT 10SM OVC070 M03/M09 A2997 RMK AO2 T10321093
Loading
Personal Weather Stations






























Interactive Weather Map New forecast layout! Learn more

10-Day Weather Forecast

Advertisements
Track Severe Weather on mobile